createdAt,value
2023-04-16T20:11:04.619Z,10.50
2023-04-16T20:13:31.737Z,10.20
2023-04-16T20:15:58.707Z,10.30
2023-04-16T20:18:28.260Z,10.30
2023-04-16T20:20:56.577Z,10.30
2023-04-16T20:23:23.485Z,10.20
2023-04-16T20:25:50.758Z,10.30
2023-04-16T20:28:21.385Z,10.20
2023-04-16T20:30:48.977Z,10.20
2023-04-16T20:33:15.833Z,10.20
2023-04-16T20:35:42.919Z,10.00
2023-04-16T20:38:09.756Z,10.00
2023-04-16T20:40:38.844Z,10.00
2023-04-16T20:43:10.130Z,9.90
2023-04-16T20:45:41.024Z,10.00
2023-04-16T20:48:09.146Z,10.10
2023-04-16T20:50:36.034Z,10.10
2023-04-16T20:53:03.556Z,10.10
2023-04-16T20:55:30.433Z,10.10
2023-04-16T20:57:57.307Z,10.20
2023-04-16T21:00:24.403Z,10.20
2023-04-16T21:02:51.595Z,10.20
2023-04-16T21:05:21.428Z,10.30
2023-04-16T21:07:48.269Z,10.20
2023-04-16T21:10:20.379Z,10.20
2023-04-16T21:12:48.336Z,10.10
2023-04-16T21:15:15.230Z,10.20
2023-04-16T21:17:42.210Z,10.10
2023-04-16T21:20:13.542Z,10.10
2023-04-16T21:22:40.542Z,10.20
2023-04-16T21:25:07.997Z,10.30
2023-04-16T21:27:34.866Z,10.20
2023-04-16T21:30:01.776Z,10.20
2023-04-16T21:32:28.699Z,10.10
2023-04-16T21:34:55.975Z,10.20
2023-04-16T21:37:22.884Z,10.30
2023-04-16T21:39:49.754Z,10.20
2023-04-16T21:42:16.602Z,10.30
2023-04-16T21:44:43.437Z,10.30
2023-04-16T21:47:10.314Z,10.20
2023-04-16T21:49:37.184Z,10.20
2023-04-16T21:52:04.263Z,10.30
2023-04-16T21:54:31.168Z,10.20
2023-04-16T21:56:58.689Z,10.30
2023-04-16T21:59:26.124Z,10.10
2023-04-16T22:01:53.063Z,10.20
2023-04-16T22:04:26.397Z,10.10
2023-04-16T22:06:56.525Z,10.00
2023-04-16T22:09:24.937Z,10.00
2023-04-16T22:11:52.538Z,10.00
2023-04-16T22:14:20.580Z,9.90
2023-04-16T22:16:50.082Z,9.90
2023-04-16T22:19:17.781Z,9.90
2023-04-16T22:21:45.606Z,9.80
2023-04-16T22:24:12.543Z,9.80
2023-04-16T22:26:39.432Z,9.90
2023-04-16T22:29:06.632Z,9.90
2023-04-16T22:31:33.768Z,9.90
2023-04-16T22:34:02.773Z,10.00
2023-04-16T22:36:31.158Z,9.80
2023-04-16T22:38:58.092Z,9.80
2023-04-16T22:41:25.454Z,9.70
2023-04-16T22:43:52.876Z,9.80
2023-04-16T22:46:19.975Z,9.80
2023-04-16T22:48:47.234Z,9.80
2023-04-16T22:51:14.108Z,9.90
2023-04-16T22:53:41.463Z,9.80
2023-04-16T22:56:08.455Z,9.80
2023-04-16T22:58:35.572Z,9.80
2023-04-16T23:01:02.494Z,9.90
2023-04-16T23:03:29.558Z,9.90
2023-04-16T23:05:56.476Z,9.80
2023-04-16T23:08:23.349Z,9.80
2023-04-16T23:10:50.485Z,9.80
2023-04-16T23:13:17.952Z,9.80
2023-04-16T23:15:47.327Z,9.80
2023-04-16T23:18:14.362Z,9.70
2023-04-16T23:20:41.281Z,9.70
2023-04-16T23:23:08.150Z,9.70
2023-04-16T23:25:35.093Z,9.70
2023-04-16T23:28:03.190Z,9.80
2023-04-16T23:30:30.036Z,9.80
2023-04-16T23:32:57.003Z,9.80
2023-04-16T23:35:24.075Z,9.70
2023-04-16T23:37:51.857Z,9.70
2023-04-16T23:40:18.857Z,9.70
2023-04-16T23:42:45.815Z,9.70
2023-04-16T23:45:13.505Z,9.80
2023-04-16T23:47:40.464Z,9.80
2023-04-16T23:50:07.934Z,9.80
2023-04-16T23:52:34.833Z,9.90
2023-04-16T23:55:01.766Z,9.90
2023-04-16T23:57:29.167Z,9.90
2023-04-16T23:59:56.245Z,10.00
